Record high temperature 36.9°C Record low temperature 15.9°C Record high gust 66.0 km/h Record high average 48.1 km/h Record daily rain 10.4 mm Record low windchill 1.3°C Record high barometer 1023.4 hPa Record low barometer 1004.1 hPa
Daily high pressure 1010.9 hPa Daily low pressure 1007.0 hPa Daily low windchill 19.5°C Daily high heat index 26.6°C Daily high gust speed 13.0 kmh SE Daily high average speed 9.5 kmh E
Stazione meteo Crema centro
LAST READING AT TIME: 12:05 DATE: 16 August 2022, time of next update: 12:10
Current WeatherDry Current Temperature 26.6°C (79.9°F) (Heat Index 27.7°C ), Apparent temp 29.1°C , Apparent temp solar 36.5°C
Maximum Temperature (since midnight)26.6°C at: 12:04 Minimum Temperature (since midnight)19.5°C at: 05:44
Average windspeed (ten minute)1.3 kmh (0.7 kts) Wind Direction (ten minute)E (79°)
Heat Index 27.7°C Maximum Gust (last hour)12.9 kmh (7.0 kts) at: 11:13
Maximum Gust (since midnight)13.0 kmh (7.0 kts) at: 11:13 Maximum 1 minute average (since midnight)9.5 kmh (5.2 kts) at: 11:45
Rainfall (last hour)0.0 mm Rainfall (since midnight)0.0 mm (0.00 in.)---
Rainfall This month 1.8 mm (0.07 in.) Rainfall To date this year 125.2 mm (4.93 in.)
Maximum rain per minute (last hour)0.0 mm/min Maximum rain per hour (last 6 hours)0.0 mm/hour
Yesterdays rainfall 0.5 mm DewPoint 19.5°C (Wet Bulb :22.0°C )
Humidity 65 %, Humidex 33.8°C Barometer corrected to msl1010.9 hPa
Pressure change +0.1 hPa (last hour) Trend (last hour)STEADY
Pressure change (last 12 hours)+3.8 hPa Pressure change (last 6 hours)+1.7 hPa
Current Solar 708 W/mē
Maximum solar (since midnight) 719 W/mē Minimum solar (since midnight)0 W/mē
Current 02:53 hours of sunshine today, current sky: Overcast and gloomy
Sunshine hours for the year: 427:08 hrs Sunshine hours for the month: 81:22 hrs
Current evapotranspiration rate 2.1 mm per day. Yesterday's reading 5.6

This page is updated from recent data collected by a DAVIS VANTAGE PRO weather station Use the Reload or Refresh facility on your browser to retrieve the latest data.

Status report of weather station: IK2CHZ - Crema meteo



Weather report/warning/Metars

Milano / Linate, Italy (LIML) 45-26N 009-17E 103M
Aug 16, 2022 - 05:50 AM EDT / 2022.08.16 0950 UTC
Wind: from the ENE (060 degrees) at 5 MPH (4 KT) (direction variable):0
Visibility: greater than 7 mile(s):0
Sky conditions: mostly clear
Temperature: 78 F (26 C)
Dew Point: 62 F (17 C)
Relative Humidity: 57%
Pressure (altimeter): 29.85 in. Hg (1011 hPa)
ob: LIML 160950Z 06004KT 360V150 9999 FEW050 26/17 Q1011 NOSIG
cycle: 10
Bergamo / Orio Al Serio, Italy (LIME) 45-40N 009-42E 237M
Aug 16, 2022 - 05:50 AM EDT / 2022.08.16 0950 UTC
Wind: from the SSW (200 degrees) at 6 MPH (5 KT) (direction variable):0
Visibility: greater than 7 mile(s):0
Temperature: 77 F (25 C)
Dew Point: 60 F (16 C)
Relative Humidity: 57%
Pressure (altimeter): 29.88 in. Hg (1012 hPa)
ob: LIME 160950Z 20005KT 150V280 CAVOK 25/16 Q1012 NOSIG
cycle: 10
Piacenza, Italy (LIMS) 44-55N 009-44E 138M
Aug 16, 2022 - 04:55 AM EDT / 2022.08.16 0855 UTC
Wind: from the NW (310 degrees) at 2 MPH (2 KT):0
Visibility: greater than 7 mile(s):0
Sky conditions: mostly clear
Temperature: 77 F (25 C)
Dew Point: 69 F (21 C)
Relative Humidity: 78%
Pressure (altimeter): 29.83 in. Hg (1010 hPa)
ob: LIMS 160855Z 31002KT 9999 FEW060 25/21 Q1010
cycle: 9